sensor_id;sensor_type;location;lat;lon;timestamp;P1;durP1;ratioP1;P2;durP2;ratioP2
11514;SDS011;5814;41.936;25.556;2023-04-10T00:01:12;12.53;;;11.80;;
11514;SDS011;5814;41.936;25.556;2023-04-10T00:03:39;12.90;;;12.10;;
11514;SDS011;5814;41.936;25.556;2023-04-10T00:06:06;12.50;;;11.70;;
11514;SDS011;5814;41.936;25.556;2023-04-10T00:08:33;12.73;;;12.03;;
11514;SDS011;5814;41.936;25.556;2023-04-10T00:11:00;12.73;;;12.03;;
11514;SDS011;5814;41.936;25.556;2023-04-10T00:13:28;13.30;;;12.50;;
11514;SDS011;5814;41.936;25.556;2023-04-10T00:15:55;13.20;;;12.40;;
11514;SDS011;5814;41.936;25.556;2023-04-10T00:18:22;13.43;;;12.23;;
11514;SDS011;5814;41.936;25.556;2023-04-10T00:20:49;13.70;;;12.80;;
11514;SDS011;5814;41.936;25.556;2023-04-10T00:23:16;13.20;;;12.40;;
11514;SDS011;5814;41.936;25.556;2023-04-10T00:25:43;13.47;;;12.67;;
11514;SDS011;5814;41.936;25.556;2023-04-10T00:28:11;13.70;;;12.90;;
11514;SDS011;5814;41.936;25.556;2023-04-10T00:30:38;13.63;;;12.63;;
11514;SDS011;5814;41.936;25.556;2023-04-10T00:33:05;13.33;;;12.53;;
11514;SDS011;5814;41.936;25.556;2023-04-10T00:35:32;12.63;;;11.83;;
11514;SDS011;5814;41.936;25.556;2023-04-10T00:37:59;13.30;;;12.17;;
11514;SDS011;5814;41.936;25.556;2023-04-10T00:40:26;12.30;;;11.50;;
11514;SDS011;5814;41.936;25.556;2023-04-10T00:42:54;12.77;;;12.07;;
11514;SDS011;5814;41.936;25.556;2023-04-10T00:45:21;18.97;;;17.73;;
11514;SDS011;5814;41.936;25.556;2023-04-10T00:47:48;13.30;;;12.50;;
11514;SDS011;5814;41.936;25.556;2023-04-10T00:50:15;13.70;;;12.90;;
11514;SDS011;5814;41.936;25.556;2023-04-10T00:52:42;19.60;;;18.50;;
11514;SDS011;5814;41.936;25.556;2023-04-10T00:55:10;13.97;;;13.17;;
11514;SDS011;5814;41.936;25.556;2023-04-10T00:57:37;13.33;;;12.53;;
11514;SDS011;5814;41.936;25.556;2023-04-10T01:00:05;13.87;;;13.03;;
11514;SDS011;5814;41.936;25.556;2023-04-10T01:02:33;12.93;;;12.13;;
11514;SDS011;5814;41.936;25.556;2023-04-10T01:05:00;12.80;;;12.00;;
11514;SDS011;5814;41.936;25.556;2023-04-10T01:07:34;13.60;;;12.60;;
11514;SDS011;5814;41.936;25.556;2023-04-10T01:09:58;13.60;;;12.80;;
11514;SDS011;5814;41.936;25.556;2023-04-10T01:12:30;13.20;;;12.37;;
11514;SDS011;5814;41.936;25.556;2023-04-10T01:15:11;13.03;;;12.20;;
11514;SDS011;5814;41.936;25.556;2023-04-10T01:17:50;18.60;;;17.40;;
11514;SDS011;5814;41.936;25.556;2023-04-10T01:20:34;17.93;;;16.83;;
11514;SDS011;5814;41.936;25.556;2023-04-10T01:23:05;17.63;;;16.40;;
11514;SDS011;5814;41.936;25.556;2023-04-10T01:25:37;19.00;;;17.70;;
11514;SDS011;5814;41.936;25.556;2023-04-10T01:30:47;13.27;;;12.37;;
11514;SDS011;5814;41.936;25.556;2023-04-10T01:33:17;18.37;;;17.17;;
11514;SDS011;5814;41.936;25.556;2023-04-10T01:35:42;12.93;;;12.23;;
11514;SDS011;5814;41.936;25.556;2023-04-10T01:38:09;17.40;;;16.30;;
11514;SDS011;5814;41.936;25.556;2023-04-10T01:40:37;18.90;;;17.50;;
11514;SDS011;5814;41.936;25.556;2023-04-10T01:43:04;13.20;;;12.30;;
11514;SDS011;5814;41.936;25.556;2023-04-10T01:45:30;17.53;;;16.53;;
11514;SDS011;5814;41.936;25.556;2023-04-10T01:47:57;13.90;;;13.10;;
11514;SDS011;5814;41.936;25.556;2023-04-10T01:50:25;18.83;;;17.70;;
11514;SDS011;5814;41.936;25.556;2023-04-10T01:52:52;18.20;;;16.90;;
11514;SDS011;5814;41.936;25.556;2023-04-10T01:55:19;18.30;;;17.20;;
11514;SDS011;5814;41.936;25.556;2023-04-10T01:57:46;12.80;;;11.90;;
11514;SDS011;5814;41.936;25.556;2023-04-10T02:00:14;17.90;;;16.70;;
11514;SDS011;5814;41.936;25.556;2023-04-10T02:02:41;17.87;;;16.80;;
11514;SDS011;5814;41.936;25.556;2023-04-10T02:05:08;19.07;;;17.87;;
11514;SDS011;5814;41.936;25.556;2023-04-10T02:07:38;14.87;;;13.97;;
11514;SDS011;5814;41.936;25.556;2023-04-10T02:10:12;19.40;;;18.10;;
11514;SDS011;5814;41.936;25.556;2023-04-10T02:12:44;18.73;;;17.53;;
11514;SDS011;5814;41.936;25.556;2023-04-10T02:15:12;18.00;;;17.00;;
11514;SDS011;5814;41.936;25.556;2023-04-10T02:17:39;19.53;;;18.20;;
11514;SDS011;5814;41.936;25.556;2023-04-10T02:20:06;18.00;;;16.70;;
11514;SDS011;5814;41.936;25.556;2023-04-10T02:22:33;18.73;;;17.63;;
11514;SDS011;5814;41.936;25.556;2023-04-10T02:25:01;19.67;;;18.23;;
11514;SDS011;5814;41.936;25.556;2023-04-10T02:27:28;19.20;;;18.00;;
11514;SDS011;5814;41.936;25.556;2023-04-10T02:29:56;20.83;;;19.37;;
11514;SDS011;5814;41.936;25.556;2023-04-10T02:32:23;19.57;;;18.37;;
11514;SDS011;5814;41.936;25.556;2023-04-10T02:34:50;18.93;;;17.73;;
11514;SDS011;5814;41.936;25.556;2023-04-10T02:37:17;18.87;;;17.67;;
11514;SDS011;5814;41.936;25.556;2023-04-10T02:39:45;19.17;;;17.80;;
11514;SDS011;5814;41.936;25.556;2023-04-10T02:42:12;19.47;;;18.07;;
11514;SDS011;5814;41.936;25.556;2023-04-10T02:44:40;18.83;;;17.73;;
11514;SDS011;5814;41.936;25.556;2023-04-10T02:47:06;20.07;;;18.77;;
11514;SDS011;5814;41.936;25.556;2023-04-10T02:49:33;19.97;;;18.47;;
11514;SDS011;5814;41.936;25.556;2023-04-10T02:52:01;21.20;;;19.60;;
11514;SDS011;5814;41.936;25.556;2023-04-10T02:54:28;20.20;;;18.97;;
11514;SDS011;5814;41.936;25.556;2023-04-10T02:56:55;19.43;;;18.23;;
11514;SDS011;5814;41.936;25.556;2023-04-10T02:59:22;21.17;;;19.53;;
11514;SDS011;5814;41.936;25.556;2023-04-10T03:01:49;19.87;;;18.43;;
11514;SDS011;5814;41.936;25.556;2023-04-10T03:04:17;21.00;;;19.63;;
11514;SDS011;5814;41.936;25.556;2023-04-10T03:06:44;22.43;;;20.73;;
11514;SDS011;5814;41.936;25.556;2023-04-10T03:09:11;37.53;;;34.43;;
11514;SDS011;5814;41.936;25.556;2023-04-10T03:11:38;20.00;;;18.63;;
11514;SDS011;5814;41.936;25.556;2023-04-10T03:14:07;20.43;;;19.17;;
11514;SDS011;5814;41.936;25.556;2023-04-10T03:16:33;31.73;;;29.20;;
11514;SDS011;5814;41.936;25.556;2023-04-10T03:19:00;33.23;;;30.53;;
11514;SDS011;5814;41.936;25.556;2023-04-10T03:21:27;29.27;;;26.73;;
11514;SDS011;5814;41.936;25.556;2023-04-10T03:23:54;19.83;;;18.73;;
11514;SDS011;5814;41.936;25.556;2023-04-10T03:26:21;33.30;;;30.10;;
11514;SDS011;5814;41.936;25.556;2023-04-10T03:28:49;31.17;;;28.37;;
11514;SDS011;5814;41.936;25.556;2023-04-10T03:31:16;23.20;;;21.40;;
11514;SDS011;5814;41.936;25.556;2023-04-10T03:33:43;23.20;;;21.27;;
11514;SDS011;5814;41.936;25.556;2023-04-10T03:36:10;23.20;;;21.30;;
11514;SDS011;5814;41.936;25.556;2023-04-10T03:38:37;23.83;;;21.60;;
11514;SDS011;5814;41.936;25.556;2023-04-10T03:41:05;25.00;;;22.77;;
11514;SDS011;5814;41.936;25.556;2023-04-10T03:43:32;25.60;;;23.20;;
11514;SDS011;5814;41.936;25.556;2023-04-10T03:45:59;29.97;;;27.07;;
11514;SDS011;5814;41.936;25.556;2023-04-10T03:48:26;26.80;;;24.47;;
11514;SDS011;5814;41.936;25.556;2023-04-10T03:50:54;27.47;;;25.13;;
11514;SDS011;5814;41.936;25.556;2023-04-10T03:53:21;23.30;;;21.40;;
11514;SDS011;5814;41.936;25.556;2023-04-10T03:55:48;24.70;;;22.43;;
11514;SDS011;5814;41.936;25.556;2023-04-10T03:58:15;23.63;;;21.67;;
11514;SDS011;5814;41.936;25.556;2023-04-10T04:00:42;16.10;;;15.00;;
11514;SDS011;5814;41.936;25.556;2023-04-10T04:03:10;23.63;;;21.53;;
11514;SDS011;5814;41.936;25.556;2023-04-10T04:05:37;23.63;;;21.57;;
11514;SDS011;5814;41.936;25.556;2023-04-10T04:08:04;22.90;;;21.23;;
11514;SDS011;5814;41.936;25.556;2023-04-10T04:10:31;28.17;;;25.57;;
11514;SDS011;5814;41.936;25.556;2023-04-10T04:12:58;29.10;;;26.50;;
11514;SDS011;5814;41.936;25.556;2023-04-10T04:15:25;22.30;;;20.40;;
11514;SDS011;5814;41.936;25.556;2023-04-10T04:17:53;27.23;;;24.87;;
11514;SDS011;5814;41.936;25.556;2023-04-10T04:20:20;24.83;;;22.63;;
11514;SDS011;5814;41.936;25.556;2023-04-10T04:22:47;22.80;;;21.00;;
11514;SDS011;5814;41.936;25.556;2023-04-10T04:25:14;23.67;;;21.60;;
11514;SDS011;5814;41.936;25.556;2023-04-10T04:27:41;23.50;;;21.77;;
11514;SDS011;5814;41.936;25.556;2023-04-10T04:30:09;23.93;;;22.20;;
11514;SDS011;5814;41.936;25.556;2023-04-10T04:32:37;24.60;;;22.43;;
11514;SDS011;5814;41.936;25.556;2023-04-10T04:35:05;21.73;;;19.60;;
11514;SDS011;5814;41.936;25.556;2023-04-10T04:37:33;28.80;;;25.93;;
11514;SDS011;5814;41.936;25.556;2023-04-10T04:40:00;27.53;;;25.00;;
11514;SDS011;5814;41.936;25.556;2023-04-10T04:42:27;24.73;;;22.83;;
11514;SDS011;5814;41.936;25.556;2023-04-10T04:44:54;29.90;;;27.40;;
11514;SDS011;5814;41.936;25.556;2023-04-10T04:47:22;31.77;;;29.20;;
11514;SDS011;5814;41.936;25.556;2023-04-10T04:49:49;32.67;;;29.97;;
11514;SDS011;5814;41.936;25.556;2023-04-10T04:52:16;27.67;;;25.57;;
11514;SDS011;5814;41.936;25.556;2023-04-10T04:54:43;23.53;;;21.80;;
11514;SDS011;5814;41.936;25.556;2023-04-10T04:57:11;19.43;;;18.13;;
11514;SDS011;5814;41.936;25.556;2023-04-10T04:59:38;16.90;;;15.63;;
11514;SDS011;5814;41.936;25.556;2023-04-10T05:02:05;24.07;;;22.17;;
11514;SDS011;5814;41.936;25.556;2023-04-10T05:04:32;21.73;;;19.47;;
11514;SDS011;5814;41.936;25.556;2023-04-10T05:06:59;27.50;;;25.10;;
11514;SDS011;5814;41.936;25.556;2023-04-10T05:09:26;26.37;;;24.07;;
11514;SDS011;5814;41.936;25.556;2023-04-10T05:11:54;19.93;;;18.23;;
11514;SDS011;5814;41.936;25.556;2023-04-10T05:14:21;18.63;;;17.13;;
11514;SDS011;5814;41.936;25.556;2023-04-10T05:16:48;25.93;;;23.50;;
11514;SDS011;5814;41.936;25.556;2023-04-10T05:19:15;18.63;;;17.03;;
11514;SDS011;5814;41.936;25.556;2023-04-10T05:21:43;18.60;;;17.17;;
11514;SDS011;5814;41.936;25.556;2023-04-10T05:24:10;20.10;;;18.30;;
11514;SDS011;5814;41.936;25.556;2023-04-10T05:26:37;19.47;;;17.87;;
11514;SDS011;5814;41.936;25.556;2023-04-10T05:29:05;18.43;;;16.83;;
11514;SDS011;5814;41.936;25.556;2023-04-10T05:31:32;19.10;;;17.40;;
11514;SDS011;5814;41.936;25.556;2023-04-10T05:33:59;25.30;;;22.80;;
11514;SDS011;5814;41.936;25.556;2023-04-10T05:36:26;23.27;;;20.90;;
11514;SDS011;5814;41.936;25.556;2023-04-10T05:38:53;20.33;;;18.43;;
11514;SDS011;5814;41.936;25.556;2023-04-10T05:41:21;18.97;;;17.27;;
11514;SDS011;5814;41.936;25.556;2023-04-10T05:43:48;20.10;;;18.40;;
11514;SDS011;5814;41.936;25.556;2023-04-10T05:46:15;21.23;;;19.30;;
11514;SDS011;5814;41.936;25.556;2023-04-10T05:48:42;21.27;;;19.27;;
11514;SDS011;5814;41.936;25.556;2023-04-10T05:51:09;17.13;;;15.57;;
11514;SDS011;5814;41.936;25.556;2023-04-10T05:53:37;17.70;;;16.33;;
11514;SDS011;5814;41.936;25.556;2023-04-10T05:56:04;13.70;;;12.53;;
11514;SDS011;5814;41.936;25.556;2023-04-10T05:58:32;18.63;;;17.03;;
11514;SDS011;5814;41.936;25.556;2023-04-10T06:00:59;21.03;;;19.33;;
11514;SDS011;5814;41.936;25.556;2023-04-10T06:03:26;13.97;;;12.97;;
11514;SDS011;5814;41.936;25.556;2023-04-10T06:05:54;13.40;;;12.50;;
11514;SDS011;5814;41.936;25.556;2023-04-10T06:08:21;12.67;;;11.80;;
11514;SDS011;5814;41.936;25.556;2023-04-10T06:10:48;13.90;;;12.73;;
11514;SDS011;5814;41.936;25.556;2023-04-10T06:13:15;13.30;;;12.40;;
11514;SDS011;5814;41.936;25.556;2023-04-10T06:15:42;17.50;;;15.73;;
11514;SDS011;5814;41.936;25.556;2023-04-10T06:18:10;12.70;;;11.60;;
11514;SDS011;5814;41.936;25.556;2023-04-10T06:20:37;14.00;;;12.63;;
11514;SDS011;5814;41.936;25.556;2023-04-10T06:23:04;15.53;;;14.07;;
11514;SDS011;5814;41.936;25.556;2023-04-10T06:25:31;14.40;;;12.87;;
11514;SDS011;5814;41.936;25.556;2023-04-10T06:27:59;13.97;;;13.07;;
11514;SDS011;5814;41.936;25.556;2023-04-10T06:30:26;12.53;;;11.63;;
11514;SDS011;5814;41.936;25.556;2023-04-10T06:32:53;12.53;;;11.70;;
11514;SDS011;5814;41.936;25.556;2023-04-10T06:35:20;12.40;;;11.60;;
11514;SDS011;5814;41.936;25.556;2023-04-10T06:37:47;12.73;;;11.63;;
11514;SDS011;5814;41.936;25.556;2023-04-10T06:40:14;12.20;;;11.30;;
11514;SDS011;5814;41.936;25.556;2023-04-10T06:42:42;21.70;;;19.57;;
11514;SDS011;5814;41.936;25.556;2023-04-10T06:45:09;12.03;;;11.03;;
11514;SDS011;5814;41.936;25.556;2023-04-10T06:47:37;22.03;;;19.30;;
11514;SDS011;5814;41.936;25.556;2023-04-10T06:50:04;12.27;;;11.07;;
11514;SDS011;5814;41.936;25.556;2023-04-10T06:52:32;17.97;;;16.07;;
11514;SDS011;5814;41.936;25.556;2023-04-10T06:54:59;14.23;;;13.20;;
11514;SDS011;5814;41.936;25.556;2023-04-10T06:57:26;13.07;;;12.07;;
11514;SDS011;5814;41.936;25.556;2023-04-10T06:59:53;11.23;;;10.43;;
11514;SDS011;5814;41.936;25.556;2023-04-10T07:02:20;10.47;;;9.70;;
11514;SDS011;5814;41.936;25.556;2023-04-10T07:04:49;12.83;;;11.60;;
11514;SDS011;5814;41.936;25.556;2023-04-10T07:07:15;10.27;;;9.57;;
11514;SDS011;5814;41.936;25.556;2023-04-10T07:09:42;10.00;;;9.30;;
11514;SDS011;5814;41.936;25.556;2023-04-10T07:12:09;8.17;;;7.67;;
11514;SDS011;5814;41.936;25.556;2023-04-10T07:14:36;9.67;;;9.07;;
11514;SDS011;5814;41.936;25.556;2023-04-10T07:17:03;9.47;;;8.87;;
11514;SDS011;5814;41.936;25.556;2023-04-10T07:19:31;10.07;;;9.30;;
11514;SDS011;5814;41.936;25.556;2023-04-10T07:21:59;13.97;;;12.60;;
11514;SDS011;5814;41.936;25.556;2023-04-10T07:24:26;13.57;;;12.37;;
11514;SDS011;5814;41.936;25.556;2023-04-10T07:26:54;10.60;;;9.90;;
11514;SDS011;5814;41.936;25.556;2023-04-10T07:29:21;13.87;;;12.97;;
11514;SDS011;5814;41.936;25.556;2023-04-10T07:31:48;15.87;;;14.67;;
11514;SDS011;5814;41.936;25.556;2023-04-10T07:34:16;13.90;;;12.80;;
11514;SDS011;5814;41.936;25.556;2023-04-10T07:36:43;11.73;;;10.93;;
11514;SDS011;5814;41.936;25.556;2023-04-10T07:39:10;12.23;;;11.33;;
11514;SDS011;5814;41.936;25.556;2023-04-10T07:41:37;17.37;;;15.67;;
11514;SDS011;5814;41.936;25.556;2023-04-10T07:44:04;10.80;;;9.97;;
11514;SDS011;5814;41.936;25.556;2023-04-10T07:46:32;12.03;;;11.10;;
11514;SDS011;5814;41.936;25.556;2023-04-10T07:48:59;25.20;;;22.83;;
11514;SDS011;5814;41.936;25.556;2023-04-10T07:51:26;14.20;;;13.20;;
11514;SDS011;5814;41.936;25.556;2023-04-10T07:53:53;13.37;;;12.53;;
11514;SDS011;5814;41.936;25.556;2023-04-10T07:56:20;17.57;;;16.30;;
11514;SDS011;5814;41.936;25.556;2023-04-10T07:58:48;12.20;;;11.40;;
11514;SDS011;5814;41.936;25.556;2023-04-10T08:01:15;15.50;;;14.40;;
11514;SDS011;5814;41.936;25.556;2023-04-10T08:03:43;12.17;;;11.27;;
11514;SDS011;5814;41.936;25.556;2023-04-10T08:06:09;12.77;;;11.80;;
11514;SDS011;5814;41.936;25.556;2023-04-10T08:08:38;14.43;;;13.13;;
11514;SDS011;5814;41.936;25.556;2023-04-10T08:11:06;12.23;;;11.40;;
11514;SDS011;5814;41.936;25.556;2023-04-10T08:13:33;11.40;;;10.60;;
11514;SDS011;5814;41.936;25.556;2023-04-10T08:16:00;13.67;;;12.37;;
11514;SDS011;5814;41.936;25.556;2023-04-10T08:18:27;11.37;;;10.47;;
11514;SDS011;5814;41.936;25.556;2023-04-10T08:20:55;9.90;;;9.30;;
11514;SDS011;5814;41.936;25.556;2023-04-10T08:23:22;12.47;;;11.53;;
11514;SDS011;5814;41.936;25.556;2023-04-10T08:25:49;24.83;;;22.80;;
11514;SDS011;5814;41.936;25.556;2023-04-10T08:28:16;13.63;;;12.57;;
11514;SDS011;5814;41.936;25.556;2023-04-10T08:30:44;12.50;;;11.70;;
11514;SDS011;5814;41.936;25.556;2023-04-10T08:33:11;13.63;;;12.60;;
11514;SDS011;5814;41.936;25.556;2023-04-10T08:35:38;13.10;;;12.27;;
11514;SDS011;5814;41.936;25.556;2023-04-10T08:38:06;12.23;;;11.40;;
11514;SDS011;5814;41.936;25.556;2023-04-10T08:40:35;12.07;;;11.27;;
11514;SDS011;5814;41.936;25.556;2023-04-10T08:43:00;13.20;;;12.10;;
11514;SDS011;5814;41.936;25.556;2023-04-10T08:45:28;13.30;;;12.40;;
11514;SDS011;5814;41.936;25.556;2023-04-10T08:47:55;13.20;;;12.30;;
11514;SDS011;5814;41.936;25.556;2023-04-10T08:50:22;15.07;;;13.93;;
11514;SDS011;5814;41.936;25.556;2023-04-10T08:52:50;14.03;;;13.03;;
11514;SDS011;5814;41.936;25.556;2023-04-10T08:55:17;16.40;;;15.23;;
11514;SDS011;5814;41.936;25.556;2023-04-10T08:57:44;13.10;;;12.30;;
11514;SDS011;5814;41.936;25.556;2023-04-10T09:00:11;15.03;;;13.93;;
11514;SDS011;5814;41.936;25.556;2023-04-10T09:02:39;13.70;;;12.80;;
11514;SDS011;5814;41.936;25.556;2023-04-10T09:05:09;13.47;;;12.47;;
11514;SDS011;5814;41.936;25.556;2023-04-10T09:07:37;14.50;;;13.60;;
11514;SDS011;5814;41.936;25.556;2023-04-10T09:10:06;14.33;;;13.43;;
11514;SDS011;5814;41.936;25.556;2023-04-10T09:15:08;18.40;;;17.00;;
11514;SDS011;5814;41.936;25.556;2023-04-10T09:17:35;41.70;;;30.37;;
11514;SDS011;5814;41.936;25.556;2023-04-10T09:20:03;18.77;;;16.97;;
11514;SDS011;5814;41.936;25.556;2023-04-10T09:22:31;15.97;;;14.63;;
11514;SDS011;5814;41.936;25.556;2023-04-10T09:24:58;16.20;;;15.03;;
11514;SDS011;5814;41.936;25.556;2023-04-10T09:27:28;14.77;;;13.77;;
11514;SDS011;5814;41.936;25.556;2023-04-10T09:29:56;14.50;;;13.50;;
11514;SDS011;5814;41.936;25.556;2023-04-10T09:32:41;13.90;;;13.00;;
11514;SDS011;5814;41.936;25.556;2023-04-10T09:35:09;14.23;;;13.33;;
11514;SDS011;5814;41.936;25.556;2023-04-10T09:37:36;15.70;;;14.43;;
11514;SDS011;5814;41.936;25.556;2023-04-10T09:40:03;16.37;;;15.17;;
11514;SDS011;5814;41.936;25.556;2023-04-10T09:42:31;16.73;;;15.57;;
11514;SDS011;5814;41.936;25.556;2023-04-10T09:44:58;13.77;;;12.87;;
11514;SDS011;5814;41.936;25.556;2023-04-10T09:47:25;12.63;;;11.83;;
11514;SDS011;5814;41.936;25.556;2023-04-10T09:49:53;13.93;;;13.03;;
11514;SDS011;5814;41.936;25.556;2023-04-10T09:52:24;14.73;;;13.83;;
11514;SDS011;5814;41.936;25.556;2023-04-10T09:54:51;13.60;;;12.60;;
11514;SDS011;5814;41.936;25.556;2023-04-10T09:57:22;15.57;;;14.47;;
11514;SDS011;5814;41.936;25.556;2023-04-10T09:59:47;11.97;;;11.13;;
11514;SDS011;5814;41.936;25.556;2023-04-10T10:02:16;12.67;;;11.77;;
11514;SDS011;5814;41.936;25.556;2023-04-10T10:04:43;13.53;;;12.43;;
11514;SDS011;5814;41.936;25.556;2023-04-10T10:07:10;14.50;;;13.23;;
11514;SDS011;5814;41.936;25.556;2023-04-10T10:09:37;12.53;;;11.60;;
11514;SDS011;5814;41.936;25.556;2023-04-10T10:12:05;14.37;;;12.97;;
11514;SDS011;5814;41.936;25.556;2023-04-10T10:14:32;12.97;;;12.17;;
11514;SDS011;5814;41.936;25.556;2023-04-10T10:16:59;16.03;;;14.43;;
11514;SDS011;5814;41.936;25.556;2023-04-10T10:19:43;13.87;;;12.97;;
11514;SDS011;5814;41.936;25.556;2023-04-10T10:22:08;13.53;;;12.43;;
11514;SDS011;5814;41.936;25.556;2023-04-10T10:24:36;16.37;;;14.97;;
11514;SDS011;5814;41.936;25.556;2023-04-10T10:27:03;15.60;;;14.13;;
11514;SDS011;5814;41.936;25.556;2023-04-10T10:29:31;25.57;;;21.37;;
11514;SDS011;5814;41.936;25.556;2023-04-10T10:31:58;26.53;;;21.73;;
11514;SDS011;5814;41.936;25.556;2023-04-10T10:34:24;32.70;;;23.43;;
11514;SDS011;5814;41.936;25.556;2023-04-10T10:36:52;15.83;;;14.70;;
11514;SDS011;5814;41.936;25.556;2023-04-10T10:39:25;17.03;;;15.60;;
11514;SDS011;5814;41.936;25.556;2023-04-10T10:41:55;12.63;;;11.80;;
11514;SDS011;5814;41.936;25.556;2023-04-10T10:44:37;11.43;;;10.73;;
11514;SDS011;5814;41.936;25.556;2023-04-10T10:47:06;10.40;;;9.50;;
11514;SDS011;5814;41.936;25.556;2023-04-10T10:52:09;9.50;;;8.83;;
11514;SDS011;5814;41.936;25.556;2023-04-10T10:54:36;9.73;;;9.13;;
11514;SDS011;5814;41.936;25.556;2023-04-10T10:57:03;8.93;;;8.43;;
11514;SDS011;5814;41.936;25.556;2023-04-10T11:02:23;12.13;;;11.23;;
11514;SDS011;5814;41.936;25.556;2023-04-10T11:04:51;11.97;;;11.10;;
11514;SDS011;5814;41.936;25.556;2023-04-10T11:07:18;10.00;;;9.50;;
11514;SDS011;5814;41.936;25.556;2023-04-10T11:09:45;8.27;;;7.70;;
11514;SDS011;5814;41.936;25.556;2023-04-10T11:12:12;10.17;;;9.43;;
11514;SDS011;5814;41.936;25.556;2023-04-10T11:14:40;9.83;;;9.33;;
11514;SDS011;5814;41.936;25.556;2023-04-10T11:17:06;10.37;;;9.67;;
11514;SDS011;5814;41.936;25.556;2023-04-10T11:22:13;8.80;;;8.00;;
11514;SDS011;5814;41.936;25.556;2023-04-10T11:24:50;7.50;;;7.00;;
11514;SDS011;5814;41.936;25.556;2023-04-10T11:32:44;7.80;;;7.40;;
11514;SDS011;5814;41.936;25.556;2023-04-10T11:35:12;8.80;;;8.20;;
11514;SDS011;5814;41.936;25.556;2023-04-10T11:37:39;8.50;;;7.97;;
11514;SDS011;5814;41.936;25.556;2023-04-10T11:40:06;9.07;;;8.47;;
11514;SDS011;5814;41.936;25.556;2023-04-10T11:42:34;8.97;;;8.30;;
11514;SDS011;5814;41.936;25.556;2023-04-10T11:45:20;9.47;;;8.87;;
11514;SDS011;5814;41.936;25.556;2023-04-10T11:47:49;8.43;;;7.73;;
11514;SDS011;5814;41.936;25.556;2023-04-10T11:50:10;7.93;;;7.33;;
11514;SDS011;5814;41.936;25.556;2023-04-10T11:52:38;9.00;;;8.40;;
11514;SDS011;5814;41.936;25.556;2023-04-10T11:55:05;8.60;;;8.07;;
11514;SDS011;5814;41.936;25.556;2023-04-10T11:57:33;10.43;;;9.70;;
11514;SDS011;5814;41.936;25.556;2023-04-10T12:00:00;8.30;;;7.80;;
11514;SDS011;5814;41.936;25.556;2023-04-10T12:02:28;9.90;;;9.27;;
11514;SDS011;5814;41.936;25.556;2023-04-10T12:04:56;10.57;;;9.87;;
11514;SDS011;5814;41.936;25.556;2023-04-10T12:07:23;8.50;;;7.90;;
11514;SDS011;5814;41.936;25.556;2023-04-10T12:09:55;7.80;;;7.30;;
11514;SDS011;5814;41.936;25.556;2023-04-10T12:15:00;8.13;;;7.53;;
11514;SDS011;5814;41.936;25.556;2023-04-10T12:17:27;9.43;;;8.70;;
11514;SDS011;5814;41.936;25.556;2023-04-10T12:19:55;8.97;;;8.40;;
11514;SDS011;5814;41.936;25.556;2023-04-10T12:22:22;8.97;;;8.23;;
11514;SDS011;5814;41.936;25.556;2023-04-10T12:24:50;8.57;;;8.07;;
11514;SDS011;5814;41.936;25.556;2023-04-10T12:27:17;9.10;;;8.43;;
11514;SDS011;5814;41.936;25.556;2023-04-10T12:29:52;9.80;;;9.20;;
11514;SDS011;5814;41.936;25.556;2023-04-10T12:32:19;10.67;;;10.03;;
11514;SDS011;5814;41.936;25.556;2023-04-10T12:34:48;10.70;;;9.90;;
11514;SDS011;5814;41.936;25.556;2023-04-10T12:37:15;9.23;;;8.63;;
11514;SDS011;5814;41.936;25.556;2023-04-10T12:39:42;9.53;;;8.93;;
11514;SDS011;5814;41.936;25.556;2023-04-10T12:42:10;11.03;;;10.43;;
11514;SDS011;5814;41.936;25.556;2023-04-10T12:47:19;13.90;;;12.83;;
11514;SDS011;5814;41.936;25.556;2023-04-10T12:52:25;11.77;;;11.00;;
11514;SDS011;5814;41.936;25.556;2023-04-10T12:54:53;11.20;;;10.33;;
11514;SDS011;5814;41.936;25.556;2023-04-10T12:57:25;10.77;;;9.90;;
11514;SDS011;5814;41.936;25.556;2023-04-10T12:59:52;11.50;;;10.60;;
11514;SDS011;5814;41.936;25.556;2023-04-10T13:02:19;12.00;;;11.00;;
11514;SDS011;5814;41.936;25.556;2023-04-10T13:04:47;9.33;;;8.63;;
11514;SDS011;5814;41.936;25.556;2023-04-10T13:07:14;9.03;;;8.43;;
11514;SDS011;5814;41.936;25.556;2023-04-10T13:09:41;10.93;;;9.97;;
11514;SDS011;5814;41.936;25.556;2023-04-10T13:12:08;16.43;;;9.17;;
11514;SDS011;5814;41.936;25.556;2023-04-10T13:14:36;10.43;;;9.53;;
11514;SDS011;5814;41.936;25.556;2023-04-10T13:17:03;8.00;;;7.50;;
11514;SDS011;5814;41.936;25.556;2023-04-10T13:19:30;9.47;;;8.97;;
11514;SDS011;5814;41.936;25.556;2023-04-10T13:21:57;9.93;;;9.20;;
11514;SDS011;5814;41.936;25.556;2023-04-10T13:24:24;9.50;;;8.97;;
11514;SDS011;5814;41.936;25.556;2023-04-10T13:26:52;10.70;;;10.00;;
11514;SDS011;5814;41.936;25.556;2023-04-10T13:29:19;12.13;;;11.13;;
11514;SDS011;5814;41.936;25.556;2023-04-10T13:31:46;10.93;;;10.23;;
11514;SDS011;5814;41.936;25.556;2023-04-10T13:34:13;9.50;;;9.00;;
11514;SDS011;5814;41.936;25.556;2023-04-10T13:36:40;10.93;;;10.17;;
11514;SDS011;5814;41.936;25.556;2023-04-10T13:39:07;10.33;;;9.63;;
11514;SDS011;5814;41.936;25.556;2023-04-10T13:41:35;9.90;;;9.30;;
11514;SDS011;5814;41.936;25.556;2023-04-10T13:44:02;11.30;;;10.70;;
11514;SDS011;5814;41.936;25.556;2023-04-10T13:46:30;9.03;;;8.53;;
11514;SDS011;5814;41.936;25.556;2023-04-10T13:48:57;10.00;;;9.50;;
11514;SDS011;5814;41.936;25.556;2023-04-10T13:51:24;11.97;;;11.27;;
11514;SDS011;5814;41.936;25.556;2023-04-10T13:53:52;12.97;;;12.10;;
11514;SDS011;5814;41.936;25.556;2023-04-10T13:56:19;13.10;;;12.20;;
11514;SDS011;5814;41.936;25.556;2023-04-10T13:58:47;13.53;;;12.43;;
11514;SDS011;5814;41.936;25.556;2023-04-10T14:01:13;13.97;;;12.97;;
11514;SDS011;5814;41.936;25.556;2023-04-10T14:03:41;12.23;;;11.50;;
11514;SDS011;5814;41.936;25.556;2023-04-10T14:06:08;13.83;;;12.93;;
11514;SDS011;5814;41.936;25.556;2023-04-10T14:08:35;13.70;;;12.90;;
11514;SDS011;5814;41.936;25.556;2023-04-10T14:11:02;14.97;;;13.87;;
11514;SDS011;5814;41.936;25.556;2023-04-10T14:13:29;15.10;;;14.20;;
11514;SDS011;5814;41.936;25.556;2023-04-10T14:15:57;14.97;;;13.97;;
11514;SDS011;5814;41.936;25.556;2023-04-10T14:18:24;17.67;;;16.47;;
11514;SDS011;5814;41.936;25.556;2023-04-10T14:20:51;21.63;;;19.67;;
11514;SDS011;5814;41.936;25.556;2023-04-10T14:23:19;36.33;;;30.10;;
11514;SDS011;5814;41.936;25.556;2023-04-10T14:25:46;23.43;;;21.37;;
11514;SDS011;5814;41.936;25.556;2023-04-10T14:28:13;16.23;;;15.07;;
11514;SDS011;5814;41.936;25.556;2023-04-10T14:30:46;16.83;;;15.43;;
11514;SDS011;5814;41.936;25.556;2023-04-10T14:33:14;23.93;;;21.63;;
11514;SDS011;5814;41.936;25.556;2023-04-10T14:35:41;16.23;;;15.00;;
11514;SDS011;5814;41.936;25.556;2023-04-10T14:38:08;13.33;;;12.53;;
11514;SDS011;5814;41.936;25.556;2023-04-10T14:40:36;15.77;;;14.67;;
11514;SDS011;5814;41.936;25.556;2023-04-10T14:43:03;14.40;;;13.30;;
11514;SDS011;5814;41.936;25.556;2023-04-10T14:45:30;16.87;;;15.70;;
11514;SDS011;5814;41.936;25.556;2023-04-10T14:47:57;17.67;;;16.47;;
11514;SDS011;5814;41.936;25.556;2023-04-10T14:50:24;18.70;;;17.33;;
11514;SDS011;5814;41.936;25.556;2023-04-10T14:52:51;16.23;;;15.17;;
11514;SDS011;5814;41.936;25.556;2023-04-10T14:55:19;17.47;;;16.17;;